North Central West Virginia Airport
KCKB : now visible

Airfield :











YOU CAN JOIN US ON...

 
LOGIN :

Register | Disclaimer

   EN    FR    IT 

 









Legend :    VFR   Marginal VFR   IFR   Intensive IFR   Very Intensive IFR
Visi :
Ceiling :
>= 8 km
>= 3000ft
5 to 8 km
1000 to 3000 ft
1500m to 5 km
500 to 1000 ft
800 to 1500m
200 to 500 ft
< 800m
< 200 ft
Symbols :   Thunderstorms  Fog  Heavy snow  Heavy precipitations  Wind > 20 kt






- Airport Elevation : 1217 ft
- IATA code : CKB


KCKB - North Central West Virginia

CURRENT METAR :
  • 181053Z AUTO 10006KT 10SM BKN090 03/M04 A3022 RMK AO2 SLP238 T00281044

EXPIRED METARs :
  • 180953Z AUTO 04006KT 10SM OVC095 01/M06 A3027 RMK AO2 PRESFR SLP257 T00111061
  • 180853Z AUTO 07006KT 10SM SCT110 02/M08 A3029 RMK AO2 SLP262 60000 T00221078 58044

TAF KCKB
Valid from the 18 at 09:00 until the 19 at 06:00 UTC


180906Z 1809/1906 10008KT P6SM OVC045
FM181200 15009G16KT 5SM -RA OVC035
FM181900 20012G27KT 3SM RA OVC019
FM190000 23014G29KT P6SM VCSH OVC019



MET'MAP, your aeronautical weather chart ! - Copyright ORBIFLY December 2007 - Disclaimer

ORBIFLY MET'MAP TEAM :

Programming & Development : Alexandra Zaïnal
Concept & original design : Baudouin d'Aumeries
Assistance for programming : Marc-Olivier Méhu
Technical & hardware support : Manuel Goepfert

Contact : metmap@orbifly.com




SOURCES & CREDITS :

   NOAA       Earth
Advisory